createdAt,value
2022-10-23T00:01:32.685Z,93.30
2022-10-23T00:04:00.968Z,93.30
2022-10-23T00:06:29.213Z,93.20
2022-10-23T00:08:56.268Z,93.00
2022-10-23T00:11:26.163Z,92.60
2022-10-23T00:13:55.295Z,92.00
2022-10-23T00:16:22.396Z,91.20
2022-10-23T00:18:49.391Z,90.70
2022-10-23T00:21:17.482Z,90.10
2022-10-23T00:23:45.268Z,89.90
2022-10-23T00:26:16.049Z,90.00
2022-10-23T00:28:48.693Z,89.90
2022-10-23T00:31:15.582Z,89.80
2022-10-23T00:33:42.617Z,89.80
2022-10-23T00:36:11.261Z,89.90
2022-10-23T00:38:38.875Z,90.00
2022-10-23T00:41:07.099Z,89.90
2022-10-23T00:43:34.733Z,89.80
2022-10-23T00:46:01.622Z,89.70
2022-10-23T00:48:28.850Z,89.80
2022-10-23T00:50:56.383Z,89.80
2022-10-23T00:53:23.764Z,89.90
2022-10-23T00:55:51.325Z,89.90
2022-10-23T00:58:19.775Z,89.90
2022-10-23T01:00:49.826Z,89.90
2022-10-23T01:03:18.106Z,89.70
2022-10-23T01:05:51.528Z,89.50
2022-10-23T01:08:29.402Z,89.40
2022-10-23T01:11:12.058Z,89.20
2022-10-23T01:13:49.827Z,89.10
2022-10-23T01:16:33.635Z,89.20
2022-10-23T01:19:06.283Z,89.30
2022-10-23T01:21:54.393Z,89.30
2022-10-23T01:24:44.743Z,89.20
2022-10-23T01:27:22.349Z,89.10
2022-10-23T01:29:55.167Z,89.10
2022-10-23T01:32:48.299Z,89.30
2022-10-23T01:35:20.142Z,89.40
2022-10-23T01:37:53.808Z,89.30
2022-10-23T01:40:37.150Z,89.20
2022-10-23T01:43:12.017Z,89.20
2022-10-23T01:45:47.564Z,89.20
2022-10-23T01:48:18.033Z,89.30
2022-10-23T01:50:45.652Z,89.20
2022-10-23T01:53:12.419Z,89.20
2022-10-23T01:58:12.435Z,89.20
2022-10-23T02:00:40.124Z,89.10
2022-10-23T02:03:07.718Z,89.10
2022-10-23T02:05:34.894Z,89.20
2022-10-23T02:08:01.912Z,89.20
2022-10-23T02:11:06.956Z,89.10
2022-10-23T02:14:01.410Z,89.10
2022-10-23T02:16:36.242Z,89.20
2022-10-23T02:19:24.204Z,89.10
2022-10-23T02:21:51.016Z,89.00
2022-10-23T02:24:28.283Z,89.10
2022-10-23T02:26:57.792Z,89.10
2022-10-23T02:29:30.740Z,88.90
2022-10-23T02:31:57.540Z,88.70
2022-10-23T02:34:24.342Z,88.40
2022-10-23T02:36:51.376Z,88.40
2022-10-23T02:39:18.214Z,88.30
2022-10-23T02:41:47.822Z,88.30
2022-10-23T02:44:33.318Z,88.40
2022-10-23T02:47:18.278Z,88.40
2022-10-23T02:50:00.364Z,88.40
2022-10-23T02:52:44.862Z,88.40
2022-10-23T02:55:19.020Z,88.60
2022-10-23T02:57:57.882Z,88.00
2022-10-23T03:00:24.819Z,88.70
2022-10-23T03:03:10.939Z,89.00
2022-10-23T03:05:40.227Z,89.10
2022-10-23T03:08:11.010Z,89.10
2022-10-23T03:10:38.069Z,88.90
2022-10-23T03:13:04.902Z,88.90
2022-10-23T03:15:31.830Z,88.80
2022-10-23T03:17:58.621Z,88.80
2022-10-23T03:20:25.398Z,88.80
2022-10-23T03:22:52.176Z,88.70
2022-10-23T03:25:18.950Z,88.70
2022-10-23T03:27:45.716Z,88.70
2022-10-23T03:30:12.711Z,88.80
2022-10-23T03:32:39.663Z,88.70
2022-10-23T03:35:06.914Z,88.60
2022-10-23T03:37:33.667Z,88.40
2022-10-23T03:40:00.475Z,88.00
2022-10-23T03:42:27.363Z,87.70
2022-10-23T03:44:54.127Z,87.20
2022-10-23T03:47:21.128Z,86.90
2022-10-23T03:49:47.932Z,86.70
2022-10-23T03:52:15.167Z,86.40
2022-10-23T03:54:42.020Z,86.00
2022-10-23T03:57:08.809Z,86.00
2022-10-23T03:59:35.694Z,86.00
2022-10-23T04:02:02.735Z,85.80
2022-10-23T04:04:29.649Z,85.30
2022-10-23T04:06:56.482Z,85.00
2022-10-23T04:09:23.383Z,84.80
2022-10-23T04:11:50.224Z,84.70
2022-10-23T04:14:17.243Z,84.50
2022-10-23T04:16:44.079Z,84.50
2022-10-23T04:19:10.930Z,84.50
2022-10-23T04:21:38.890Z,84.60
2022-10-23T04:24:06.013Z,84.60
2022-10-23T04:26:32.751Z,84.70
2022-10-23T04:28:59.566Z,84.90
2022-10-23T04:31:26.846Z,84.90
2022-10-23T04:33:53.691Z,84.90
2022-10-23T04:36:20.507Z,84.90
2022-10-23T04:38:47.973Z,84.80
2022-10-23T04:41:14.721Z,84.80
2022-10-23T04:43:41.501Z,84.70
2022-10-23T04:46:08.347Z,84.70
2022-10-23T04:48:35.210Z,84.70
2022-10-23T04:51:04.034Z,84.80
2022-10-23T04:53:31.321Z,84.80
2022-10-23T04:55:59.279Z,84.80
2022-10-23T04:58:27.511Z,84.80
2022-10-23T05:00:54.696Z,84.90
2022-10-23T05:03:22.428Z,84.90
2022-10-23T05:05:49.220Z,84.80
2022-10-23T05:08:18.065Z,84.60
2022-10-23T05:10:45.159Z,84.50
2022-10-23T05:13:11.918Z,84.50
2022-10-23T05:15:38.735Z,84.60
2022-10-23T05:18:11.494Z,84.60
2022-10-23T05:20:39.727Z,84.70
2022-10-23T05:23:08.692Z,84.70
2022-10-23T05:25:35.966Z,84.60
2022-10-23T05:28:02.736Z,84.60
2022-10-23T05:30:29.667Z,84.60
2022-10-23T05:32:58.794Z,84.70
2022-10-23T05:35:25.599Z,84.70
2022-10-23T05:37:53.890Z,84.70
2022-10-23T05:40:20.974Z,84.60
2022-10-23T05:42:48.336Z,84.60
2022-10-23T05:45:15.481Z,84.50
2022-10-23T05:47:44.526Z,84.60
2022-10-23T05:50:11.421Z,84.50
2022-10-23T05:52:38.290Z,84.40
2022-10-23T05:55:05.355Z,84.40
2022-10-23T05:57:33.411Z,84.50
2022-10-23T06:00:00.268Z,84.60
2022-10-23T06:02:27.202Z,84.60
2022-10-23T06:04:54.045Z,84.50
2022-10-23T06:07:25.587Z,84.50
2022-10-23T06:09:53.011Z,84.50
2022-10-23T06:12:21.042Z,84.30
2022-10-23T06:14:48.530Z,84.30
2022-10-23T06:17:15.903Z,84.40
2022-10-23T06:19:49.381Z,84.50
2022-10-23T06:24:47.155Z,84.60
2022-10-23T06:27:13.959Z,84.70
2022-10-23T06:29:41.563Z,84.80
2022-10-23T06:32:08.502Z,84.70
2022-10-23T06:34:35.438Z,84.60
2022-10-23T06:37:02.275Z,84.50
2022-10-23T06:39:31.949Z,84.30
2022-10-23T06:41:59.181Z,84.10
2022-10-23T06:44:26.080Z,84.20
2022-10-23T06:46:53.236Z,84.30
2022-10-23T06:49:20.205Z,84.40
2022-10-23T06:51:47.117Z,84.60
2022-10-23T06:54:14.463Z,84.60
2022-10-23T06:56:49.660Z,84.60
2022-10-23T06:59:16.549Z,84.70
2022-10-23T07:01:43.588Z,84.70
2022-10-23T07:04:10.615Z,84.90
2022-10-23T07:06:37.511Z,85.00
2022-10-23T07:09:04.954Z,85.00
2022-10-23T07:12:03.439Z,85.00
2022-10-23T07:14:32.262Z,85.00
2022-10-23T07:17:02.116Z,85.00
2022-10-23T07:19:29.067Z,85.00
2022-10-23T07:21:55.930Z,85.20
2022-10-23T07:24:22.774Z,85.30
2022-10-23T07:29:17.274Z,85.10
2022-10-23T07:31:44.008Z,84.80
2022-10-23T07:34:11.391Z,84.60
2022-10-23T07:36:38.198Z,84.20
2022-10-23T07:39:19.796Z,84.10
2022-10-23T07:41:50.601Z,84.20
2022-10-23T07:44:18.035Z,84.40
2022-10-23T07:46:44.773Z,84.60
2022-10-23T07:49:11.620Z,84.40
2022-10-23T07:51:38.415Z,84.70
2022-10-23T07:54:05.253Z,84.90
2022-10-23T07:56:32.041Z,85.00
2022-10-23T07:59:35.844Z,85.50
2022-10-23T08:02:04.857Z,85.60
2022-10-23T08:04:41.991Z,85.60
2022-10-23T08:07:08.910Z,85.50
2022-10-23T08:09:37.973Z,85.50
2022-10-23T08:12:05.378Z,85.60
2022-10-23T08:14:35.161Z,85.60
2022-10-23T08:17:15.426Z,85.40
2022-10-23T08:19:46.379Z,85.50
2022-10-23T08:22:13.498Z,85.60
2022-10-23T08:24:40.339Z,85.80
2022-10-23T08:27:10.830Z,86.10
2022-10-23T08:29:37.819Z,86.10
2022-10-23T08:32:05.091Z,86.00
2022-10-23T08:34:45.222Z,85.50
2022-10-23T08:37:14.277Z,85.40
2022-10-23T08:39:41.271Z,85.80
2022-10-23T08:42:36.838Z,86.50
2022-10-23T08:45:28.725Z,86.90
2022-10-23T08:48:10.364Z,87.10
2022-10-23T08:50:45.832Z,87.00
2022-10-23T08:53:38.183Z,86.70
2022-10-23T08:56:46.551Z,86.40
2022-10-23T08:59:24.545Z,86.10
2022-10-23T09:02:00.301Z,86.20
2022-10-23T09:04:27.462Z,86.70
2022-10-23T09:07:06.368Z,87.00
2022-10-23T09:09:36.021Z,87.30
2022-10-23T09:15:30.315Z,87.70
2022-10-23T09:18:07.805Z,88.30
2022-10-23T09:20:40.264Z,88.70
2022-10-23T09:23:18.954Z,89.00
2022-10-23T09:25:49.032Z,89.50
2022-10-23T09:28:23.935Z,89.90
2022-10-23T09:30:56.430Z,90.60
2022-10-23T09:33:28.193Z,91.40
2022-10-23T09:36:01.502Z,91.90
2022-10-23T09:38:48.694Z,92.40
2022-10-23T09:41:39.796Z,92.70
2022-10-23T09:44:20.688Z,93.30
2022-10-23T09:47:13.984Z,93.60
2022-10-23T09:49:48.067Z,94.10
2022-10-23T09:52:16.598Z,94.40
2022-10-23T09:54:51.678Z,95.10
2022-10-23T09:57:27.508Z,95.40
2022-10-23T10:00:19.078Z,95.50
2022-10-23T10:03:04.066Z,95.70
2022-10-23T10:05:33.534Z,95.50
2022-10-23T10:08:00.435Z,95.70
2022-10-23T10:10:36.663Z,95.70
2022-10-23T10:13:26.477Z,95.70
2022-10-23T10:15:57.132Z,95.70
2022-10-23T10:18:40.184Z,95.70
2022-10-23T10:21:21.534Z,95.70
2022-10-23T10:24:30.581Z,95.70
2022-10-23T10:27:33.105Z,95.70
2022-10-23T10:30:20.352Z,95.70
2022-10-23T10:33:05.983Z,95.70
2022-10-23T10:35:38.824Z,95.70
2022-10-23T10:38:28.727Z,95.70
2022-10-23T10:41:11.362Z,95.70
2022-10-23T10:43:54.271Z,95.70
2022-10-23T10:46:26.939Z,95.70
2022-10-23T10:49:04.005Z,95.70
2022-10-23T10:51:51.646Z,95.70
2022-10-23T10:54:47.501Z,95.70
2022-10-23T10:57:40.138Z,95.70
2022-10-23T11:00:16.536Z,95.70
2022-10-23T11:02:48.558Z,95.70
2022-10-23T11:05:22.183Z,95.70
2022-10-23T11:07:53.121Z,95.70
2022-10-23T11:10:20.053Z,95.70
2022-10-23T11:12:48.125Z,95.70
2022-10-23T11:15:16.751Z,95.70
2022-10-23T11:18:08.696Z,95.70
2022-10-23T11:21:10.919Z,95.70
2022-10-23T11:24:03.076Z,95.70
2022-10-23T11:26:41.677Z,95.70
2022-10-23T11:29:33.857Z,95.70
2022-10-23T11:32:34.710Z,95.70
2022-10-23T11:35:25.887Z,95.70
2022-10-23T11:38:40.622Z,95.70
2022-10-23T11:41:25.401Z,95.70
2022-10-23T11:44:05.642Z,95.70
2022-10-23T11:46:35.116Z,95.70
2022-10-23T11:49:05.942Z,95.70
2022-10-23T11:51:38.036Z,95.70
2022-10-23T11:54:07.676Z,95.70
2022-10-23T11:56:34.718Z,95.70
2022-10-23T11:59:27.527Z,95.70
2022-10-23T12:01:56.460Z,95.70
2022-10-23T12:04:39.693Z,95.70
2022-10-23T12:07:21.208Z,95.70
2022-10-23T12:10:17.543Z,95.70
2022-10-23T12:12:54.379Z,95.70
2022-10-23T12:15:22.659Z,95.70
2022-10-23T12:17:51.620Z,95.70
2022-10-23T12:20:38.125Z,95.70
2022-10-23T12:23:20.245Z,95.70
2022-10-23T12:26:25.903Z,95.70
2022-10-23T12:29:10.920Z,95.70
2022-10-23T12:31:48.169Z,95.70
2022-10-23T12:34:44.108Z,95.70
2022-10-23T12:37:39.581Z,95.70
2022-10-23T12:40:09.046Z,95.70
2022-10-23T12:42:36.507Z,95.70
2022-10-23T12:45:10.582Z,95.70
2022-10-23T12:50:19.956Z,95.70
2022-10-23T12:52:54.195Z,95.70
2022-10-23T12:55:21.644Z,95.70
2022-10-23T12:57:48.701Z,95.70
2022-10-23T13:00:19.647Z,95.70
2022-10-23T13:02:47.008Z,95.70
2022-10-23T13:05:18.041Z,95.70
2022-10-23T13:07:47.231Z,95.70
2022-10-23T13:10:38.032Z,95.70
2022-10-23T13:13:06.957Z,95.70
2022-10-23T13:15:57.908Z,95.70
2022-10-23T13:18:25.401Z,95.70
2022-10-23T13:20:52.286Z,95.70
2022-10-23T13:23:31.270Z,95.70
2022-10-23T13:26:00.831Z,95.70
2022-10-23T13:28:44.305Z,95.70
2022-10-23T13:35:03.566Z,95.70
2022-10-23T13:37:37.290Z,95.70
2022-10-23T13:40:09.726Z,95.70
2022-10-23T13:42:36.470Z,95.70
2022-10-23T13:45:03.338Z,95.70
2022-10-23T13:47:30.068Z,95.70
2022-10-23T13:49:56.821Z,95.70
2022-10-23T13:52:23.884Z,95.70
2022-10-23T13:54:50.977Z,95.70
2022-10-23T13:57:17.718Z,95.70
2022-10-23T13:59:45.454Z,95.70
2022-10-23T14:02:20.956Z,95.70
2022-10-23T14:04:49.810Z,95.70
2022-10-23T14:07:16.946Z,95.70
2022-10-23T14:09:43.863Z,95.70
2022-10-23T14:12:11.921Z,95.70
2022-10-23T14:14:38.718Z,95.70
2022-10-23T14:17:05.486Z,95.70
2022-10-23T14:19:33.919Z,95.70
2022-10-23T14:22:00.687Z,95.70
2022-10-23T14:24:27.576Z,95.70
2022-10-23T14:26:54.353Z,95.70
2022-10-23T14:29:24.058Z,95.70
2022-10-23T14:31:51.882Z,95.70
2022-10-23T14:34:18.642Z,95.70
2022-10-23T14:36:50.118Z,95.70
2022-10-23T14:39:18.541Z,95.70
2022-10-23T14:41:45.336Z,95.70
2022-10-23T14:44:12.124Z,95.70
2022-10-23T14:46:41.024Z,95.70
2022-10-23T14:49:07.792Z,95.70
2022-10-23T14:51:34.588Z,95.70
2022-10-23T14:54:05.974Z,95.70
2022-10-23T14:56:36.658Z,95.70
2022-10-23T14:59:04.737Z,95.70
2022-10-23T15:01:37.623Z,95.70
2022-10-23T15:04:05.271Z,95.70
2022-10-23T15:06:33.477Z,95.70
2022-10-23T15:09:00.410Z,95.70
2022-10-23T15:11:27.825Z,95.70
2022-10-23T15:13:55.397Z,95.70
2022-10-23T15:16:23.543Z,95.70
2022-10-23T15:18:50.847Z,95.70
2022-10-23T15:21:18.138Z,95.70
2022-10-23T15:23:46.053Z,95.70
2022-10-23T15:26:20.358Z,95.70
2022-10-23T15:28:52.181Z,95.70
2022-10-23T15:31:43.570Z,95.70
2022-10-23T15:34:15.559Z,95.70
2022-10-23T15:36:42.778Z,95.70
2022-10-23T15:39:10.829Z,95.70
2022-10-23T15:41:40.181Z,95.70
2022-10-23T15:44:08.466Z,95.70
2022-10-23T15:46:35.642Z,95.70
2022-10-23T15:49:02.650Z,95.70
2022-10-23T15:51:29.499Z,95.70
2022-10-23T15:53:56.992Z,95.70
2022-10-23T15:56:24.953Z,95.70
2022-10-23T15:58:52.201Z,95.70
2022-10-23T16:01:19.212Z,95.70
2022-10-23T16:03:46.820Z,95.70
2022-10-23T16:06:15.280Z,95.70
2022-10-23T16:08:43.947Z,95.70
2022-10-23T16:11:31.475Z,95.70
2022-10-23T16:13:59.121Z,95.70
2022-10-23T16:16:27.411Z,95.70
2022-10-23T16:18:54.461Z,95.70
2022-10-23T16:21:24.000Z,95.70
2022-10-23T16:23:52.169Z,95.70
2022-10-23T16:26:21.885Z,95.70
2022-10-23T16:28:55.634Z,95.70
2022-10-23T16:31:23.844Z,95.70
2022-10-23T16:33:51.616Z,95.70
2022-10-23T16:36:21.834Z,95.70
2022-10-23T16:38:54.527Z,95.70
2022-10-23T16:41:21.625Z,95.70
2022-10-23T16:43:48.470Z,95.70
2022-10-23T16:46:17.994Z,95.70
2022-10-23T16:48:44.785Z,95.70
2022-10-23T16:51:14.635Z,95.40
2022-10-23T16:53:42.009Z,95.20
2022-10-23T16:56:10.639Z,94.80
2022-10-23T16:58:40.792Z,94.80
2022-10-23T17:01:14.115Z,95.00
2022-10-23T17:03:43.393Z,94.90
2022-10-23T17:06:12.415Z,94.80
2022-10-23T17:08:44.895Z,94.90
2022-10-23T17:11:14.108Z,94.80
2022-10-23T17:13:55.706Z,94.80
2022-10-23T17:16:26.851Z,95.10
2022-10-23T17:18:53.750Z,95.10
2022-10-23T17:21:21.893Z,95.10
2022-10-23T17:23:50.158Z,94.90
2022-10-23T17:26:19.690Z,94.70
2022-10-23T17:28:46.941Z,94.50
2022-10-23T17:31:22.746Z,94.70
2022-10-23T17:33:51.589Z,94.70
2022-10-23T17:36:19.895Z,94.60
2022-10-23T17:38:46.790Z,94.50
2022-10-23T17:41:15.678Z,94.40
2022-10-23T17:43:43.018Z,94.30
2022-10-23T17:46:11.418Z,94.10
2022-10-23T17:48:39.566Z,94.10
2022-10-23T17:51:09.071Z,94.10
2022-10-23T17:53:39.836Z,93.90
2022-10-23T17:56:09.216Z,93.90
2022-10-23T17:58:36.582Z,94.00
2022-10-23T18:01:07.953Z,93.90
2022-10-23T18:03:35.462Z,93.90
2022-10-23T18:06:07.951Z,94.00
2022-10-23T18:08:36.212Z,93.80
2022-10-23T18:11:05.038Z,93.80
2022-10-23T18:13:36.893Z,93.90
2022-10-23T18:16:05.213Z,93.80
2022-10-23T18:18:32.577Z,93.60
2022-10-23T18:21:03.406Z,93.60
2022-10-23T18:23:30.803Z,93.60
2022-10-23T18:25:58.580Z,93.50
2022-10-23T18:28:26.470Z,93.30
2022-10-23T18:30:56.157Z,93.20
2022-10-23T18:33:24.226Z,93.20
2022-10-23T18:35:51.033Z,92.90
2022-10-23T18:38:17.949Z,92.40
2022-10-23T18:40:44.721Z,92.20
2022-10-23T18:43:15.044Z,92.20
2022-10-23T18:45:46.845Z,92.20
2022-10-23T18:48:13.762Z,91.90
2022-10-23T18:50:40.543Z,91.80
2022-10-23T18:53:07.467Z,91.90
2022-10-23T18:58:01.018Z,92.10
2022-10-23T19:00:28.009Z,92.30
2022-10-23T19:02:55.172Z,92.20
2022-10-23T19:05:21.981Z,92.10
2022-10-23T19:07:49.893Z,92.00
2022-10-23T19:10:19.347Z,91.80
2022-10-23T19:12:46.183Z,91.80
2022-10-23T19:15:13.291Z,92.00
2022-10-23T19:17:40.065Z,92.00
2022-10-23T19:20:14.764Z,92.20
2022-10-23T19:22:44.913Z,92.30
2022-10-23T19:25:15.487Z,92.40
2022-10-23T19:27:43.867Z,92.30
2022-10-23T19:30:13.720Z,92.40
2022-10-23T19:32:41.504Z,92.60
2022-10-23T19:35:11.343Z,92.40
2022-10-23T19:37:39.120Z,92.20
2022-10-23T19:40:07.345Z,92.10
2022-10-23T19:42:35.445Z,91.90
2022-10-23T19:45:02.315Z,91.60
2022-10-23T19:47:29.099Z,91.40
2022-10-23T19:49:55.922Z,91.40
2022-10-23T19:52:23.312Z,91.60
2022-10-23T19:54:50.506Z,91.40
2022-10-23T19:57:19.292Z,91.40
2022-10-23T19:59:50.129Z,91.30
2022-10-23T20:02:18.122Z,91.60
2022-10-23T20:04:45.272Z,91.60
2022-10-23T20:07:12.169Z,91.40
2022-10-23T20:09:39.149Z,91.50
2022-10-23T20:12:06.139Z,91.40
2022-10-23T20:14:33.442Z,91.50
2022-10-23T20:17:01.607Z,91.70
2022-10-23T20:19:28.726Z,91.50
2022-10-23T20:21:55.512Z,91.60
2022-10-23T20:24:22.591Z,91.40
2022-10-23T20:26:53.992Z,91.40
2022-10-23T20:29:21.209Z,91.60
2022-10-23T20:31:48.321Z,91.80
2022-10-23T20:34:15.188Z,92.00
2022-10-23T20:36:46.694Z,92.20
2022-10-23T20:39:17.211Z,92.20
2022-10-23T20:41:45.062Z,92.10
2022-10-23T20:46:47.234Z,92.20
2022-10-23T20:49:14.527Z,92.20
2022-10-23T20:51:41.905Z,92.10
2022-10-23T20:54:08.867Z,92.00
2022-10-23T20:56:37.852Z,91.90
2022-10-23T20:59:06.328Z,92.00
2022-10-23T21:01:34.283Z,92.00
2022-10-23T21:04:02.721Z,92.10
2022-10-23T21:06:45.834Z,92.10
2022-10-23T21:09:18.823Z,92.10
2022-10-23T21:11:45.683Z,92.10
2022-10-23T21:14:12.488Z,92.10
2022-10-23T21:16:44.483Z,92.20
2022-10-23T21:19:13.641Z,92.10
2022-10-23T21:21:40.460Z,92.10
2022-10-23T21:24:09.676Z,92.30
2022-10-23T21:26:36.628Z,92.40
2022-10-23T21:29:19.751Z,92.50
2022-10-23T21:32:01.575Z,92.50
2022-10-23T21:34:28.988Z,92.50
2022-10-23T21:39:43.673Z,92.60
2022-10-23T21:42:11.658Z,92.60
2022-10-23T21:44:38.506Z,92.50
2022-10-23T21:47:05.278Z,92.50
2022-10-23T21:49:33.309Z,92.40
2022-10-23T21:52:00.174Z,92.40
2022-10-23T21:54:27.026Z,92.30
2022-10-23T21:56:54.123Z,92.40
2022-10-23T21:59:24.290Z,92.40
2022-10-23T22:01:51.985Z,92.30
2022-10-23T22:04:19.823Z,92.40
2022-10-23T22:06:48.901Z,92.40
2022-10-23T22:09:19.546Z,92.40
2022-10-23T22:11:48.274Z,92.50
2022-10-23T22:14:15.598Z,92.40
2022-10-23T22:16:45.796Z,92.40
2022-10-23T22:19:14.634Z,92.40
2022-10-23T22:21:41.953Z,92.60
2022-10-23T22:24:09.390Z,92.70
2022-10-23T22:26:46.059Z,92.60
2022-10-23T22:29:15.526Z,92.70
2022-10-23T22:31:45.700Z,92.60
2022-10-23T22:34:48.244Z,92.70
2022-10-23T22:37:14.938Z,92.60
2022-10-23T22:39:41.733Z,92.40
2022-10-23T22:42:08.809Z,92.40
2022-10-23T22:44:35.699Z,92.40
2022-10-23T22:47:02.534Z,92.40
2022-10-23T22:49:29.471Z,92.40
2022-10-23T22:51:56.285Z,92.40
2022-10-23T22:54:23.124Z,92.40
2022-10-23T22:56:49.941Z,92.30
2022-10-23T22:59:16.744Z,92.30
2022-10-23T23:01:45.768Z,92.20
2022-10-23T23:04:36.838Z,92.10
2022-10-23T23:07:06.212Z,92.10
2022-10-23T23:09:35.898Z,92.10
2022-10-23T23:12:02.689Z,92.10
2022-10-23T23:14:29.444Z,92.00
2022-10-23T23:16:56.229Z,91.90
2022-10-23T23:19:23.245Z,91.80
2022-10-23T23:21:50.295Z,91.60
2022-10-23T23:24:17.296Z,91.60
2022-10-23T23:26:44.034Z,91.50
2022-10-23T23:29:11.054Z,91.40
2022-10-23T23:31:37.849Z,91.30
2022-10-23T23:34:04.634Z,91.30
2022-10-23T23:36:31.424Z,91.30
2022-10-23T23:38:58.592Z,91.30
2022-10-23T23:41:27.139Z,91.30
2022-10-23T23:43:55.334Z,91.40
2022-10-23T23:46:22.362Z,91.50
2022-10-23T23:48:49.808Z,91.60
2022-10-23T23:51:21.571Z,91.60
2022-10-23T23:53:49.484Z,91.50
2022-10-23T23:56:17.131Z,91.60
2022-10-23T23:58:44.182Z,91.70
